Pylesville, MD (21132)

12:54 AM EST on February 13, 2016 (GMT -0500)
Rural | | Change Station
CLOSE
Current Station
Personal Weather Station
Location: Pylesville, MD
Elevation: 440 ft
Nearby Weather Stations
Active Advisory: Wind Advisory

Elev 440 ft 39.69 °N, 76.39 °W | Updated 19 seconds ago

Overcast
Overcast
17.1 °F
Feels Like 17 °F
N
0.0
Wind Variable Wind from West
Gusts 0.0 mph

Today
High -- | Low -- °F
--% Chance of Precip.
Yesterday
High -- | Low -- °F
Precip. -- in
Pressure 30.01 in
Visibility 10.0 miles
Clouds Scattered Clouds 9000 ft
Windchill 17 °F
Dew Point 11 °F
Humidity 77%
Rainfall 0.00 in
Snow Depth Not available.
7:01 AM 5:39 PM
Waxing Crescent, 27% visible
METAR KMTN 130545Z AUTO 22004KT 10SM SCT090 M03/M06 A3001 RMK AO2
Pressure 30.01 in
Visibility 10.0 miles
Clouds Scattered Clouds 9000 ft
Windchill 17 °F
Dew Point 11 °F
Humidity 77%
Rainfall 0.00 in
Snow Depth Not available.
7:01 AM 5:39 PM
Waxing Crescent, 27% visible
METAR KMTN 130545Z AUTO 22004KT 10SM SCT090 M03/M06 A3001 RMK AO2

10-Day Weather Forecast

Almanac

Astronomy

Feb. 13, 2016 Rise Set
Actual Time
Civil Twilight
Nautical Twilight
Astronomical Twilight
Moon
Length of Visible Light
Length of Day
Tomorrow will be .
, % of the Moon is Illuminated

Today's Extremes

State Highs State Lows

Community

WunderPhotos

Upload Photos

1,892,507 photos uploaded!

WunderBlog® & News

Nearby

Air Quality

  Air Quality AQ Index Pollutant
Not available.

Snow Depth

Station Depth Elevation

Earthquake Activity

City Distance Mag. Time & Date
Minimum magnitude displayed is 2.5.

Coastal Water Temperatures

Place Temperature

Stations

Nearby Weather Stations

Station Location Temp. Windchill Dew Point Humidity Wind Precip. Elev Updated Type
                   

Watches & Warnings

Wind Advisory
Issued: 11:51 PM EST Feb. 12, 2016 – National Weather Service

... Wind Advisory remains in effect from 3 am to 6 PM EST
Saturday...

* timing... late tonight through Saturday. Greatest wind threat
is Saturday morning through midday.

* Winds... northwest 20 to 30 mph with gusts around 50 mph.

* Impacts... scattered tree and power line damage. Difficulty
driving high profile vehicles.

Precautionary/preparedness actions...

A Wind Advisory means that wind gusts of 45 to 55 mph are
expected. Secure outdoor furniture and take care driving high
profile vehicles.